Time;durP1;ratioP1;P1;durP2;ratioP2;P2;SDS_P1;SDS_P2;PMS_P1;PMS_P2;Temp;Humidity;BMP_temperature;BMP_pressure;BME280_temperature;BME280_humidity;BME280_pressure;Samples;Min_cycle;Max_cycle;Signal;HPM_P1;HPM_P2
2024/03/30 00:01:34;;;;;;;3.97;1.55;;;9.10;57.20;;;;;;5025896;28;20056;-67
2024/03/30 00:04:19;;;;;;;4.13;1.20;;;9.00;57.10;;;;;;5036989;28;20113;-63
2024/03/30 00:07:04;;;;;;;3.58;2.05;;;9.00;57.10;;;;;;5039518;28;20601;-63
2024/03/30 00:09:50;;;;;;;4.25;1.42;;;9.00;57.10;;;;;;5035427;28;26604;-62
2024/03/30 00:12:34;;;;;;;5.47;1.23;;;8.90;57.10;;;;;;5038638;28;20376;-63
2024/03/30 00:15:19;;;;;;;4.07;1.30;;;8.90;57.10;;;;;;5037521;28;20457;-62
2024/03/30 00:18:04;;;;;;;5.47;1.70;;;8.90;57.10;;;;;;5038329;28;20063;-61
2024/03/30 00:20:49;;;;;;;5.13;1.58;;;8.90;57.70;;;;;;5032450;28;20139;-64
2024/03/30 00:23:35;;;;;;;5.32;1.60;;;8.90;57.20;;;;;;5026657;28;20052;-64
2024/03/30 00:26:19;;;;;;;4.05;1.52;;;8.90;57.20;;;;;;5036863;28;20530;-62
2024/03/30 00:29:04;;;;;;;6.22;1.92;;;8.80;57.10;;;;;;5036395;28;20112;-62
2024/03/30 00:31:49;;;;;;;4.82;1.02;;;8.80;57.10;;;;;;5032819;28;20040;-61
2024/03/30 00:34:34;;;;;;;6.05;1.77;;;8.80;57.20;;;;;;5034840;28;20365;-62
2024/03/30 00:37:18;;;;;;;4.03;1.20;;;8.80;57.20;;;;;;5036072;28;20436;-62
2024/03/30 00:40:04;;;;;;;5.90;1.55;;;8.80;57.30;;;;;;5033802;28;20119;-63
2024/03/30 00:42:49;;;;;;;2.70;1.00;;;8.70;57.20;;;;;;5034687;28;20044;-61
2024/03/30 00:45:38;;;;;;;5.15;1.48;;;8.70;57.20;;;;;;5035119;28;20043;-61
2024/03/30 00:48:23;;;;;;;5.40;1.63;;;8.70;57.30;;;;;;5025638;28;20478;-62
2024/03/30 00:51:08;;;;;;;7.32;1.88;;;8.70;57.30;;;;;;5033100;28;20431;-63
2024/03/30 00:53:52;;;;;;;3.13;0.82;;;8.60;57.20;;;;;;5031076;28;20136;-62
2024/03/30 00:56:37;;;;;;;3.75;1.00;;;8.60;57.20;;;;;;5030207;28;20078;-61
2024/03/30 00:59:21;;;;;;;5.38;1.65;;;8.60;57.30;;;;;;5032865;28;20541;-62
2024/03/30 01:02:06;;;;;;;3.33;1.20;;;8.60;57.40;;;;;;5033756;28;20138;-62
2024/03/30 01:04:51;;;;;;;6.32;1.58;;;8.60;57.40;;;;;;5039870;28;20514;-61
2024/03/30 01:07:37;;;;;;;5.07;1.42;;;8.60;57.40;;;;;;5027323;28;20052;-62
2024/03/30 01:10:22;;;;;;;3.38;1.45;;;8.60;57.50;;;;;;5043744;28;20588;-62
2024/03/30 01:13:11;;;;;;;4.85;1.10;;;8.60;57.50;;;;;;5035027;28;20118;-63
2024/03/30 01:15:59;;;;;;;3.65;1.00;;;8.50;57.40;;;;;;5039294;28;20051;-62
2024/03/30 01:19:04;;;;;;;5.47;1.30;;;8.50;57.40;;;;;;5055077;28;20036;-61
2024/03/30 01:22:10;;;;;;;;;;;;;;;;;;;;;
2024/03/30 01:24:56;;;;;;;4.78;1.17;;;8.50;57.50;;;;;;5058982;28;20060;-61
2024/03/30 01:27:42;;;;;;;6.13;1.65;;;8.50;57.50;;;;;;5036526;28;20461;-62
2024/03/30 01:30:28;;;;;;;3.90;1.30;;;8.50;57.50;;;;;;5038972;28;20041;-62
2024/03/30 01:33:14;;;;;;;5.63;1.92;;;8.50;57.60;;;;;;5057421;28;20116;-62
2024/03/30 01:36:03;;;;;;;4.60;1.52;;;8.50;57.60;;;;;;5040405;28;20056;-62
2024/03/30 01:38:48;;;;;;;4.55;1.17;;;8.50;57.70;;;;;;5029743;28;20041;-62
2024/03/30 01:41:36;;;;;;;3.20;1.08;;;8.50;57.70;;;;;;5067470;28;20064;-62
2024/03/30 01:44:22;;;;;;;6.15;1.45;;;8.50;57.80;;;;;;5041439;28;20095;-60
2024/03/30 01:47:08;;;;;;;3.63;1.10;;;8.40;57.60;;;;;;5015350;28;20051;-62
2024/03/30 01:49:57;;;;;;;2.72;1.05;;;8.40;57.70;;;;;;5033414;28;20048;-61
2024/03/30 01:52:41;;;;;;;4.30;1.13;;;8.40;57.70;;;;;;5029345;28;20072;-62
2024/03/30 01:55:28;;;;;;;3.85;1.23;;;8.40;57.80;;;;;;5045126;28;20132;-61
2024/03/30 01:58:20;;;;;;;4.63;1.50;;;8.40;57.80;;;;;;5025007;28;20119;-62
2024/03/30 02:01:05;;;;;;;3.45;1.10;;;8.40;57.80;;;;;;5033257;28;20118;-61
2024/03/30 02:03:51;;;;;;;5.05;1.45;;;8.40;57.90;;;;;;5030359;28;20031;-61
2024/03/30 02:06:46;;;;;;;;;;;;;;;;;;;;;
2024/03/30 02:09:35;;;;;;;8.40;2.10;;;8.40;57.90;;;;;;5031498;28;20036;-62
2024/03/30 02:12:22;;;;;;;2.75;1.08;;;8.40;57.90;;;;;;5033896;28;20290;-61
2024/03/30 02:15:07;;;;;;;4.30;1.30;;;8.30;57.80;;;;;;5032893;28;20139;-62
2024/03/30 02:17:52;;;;;;;3.65;1.13;;;8.30;57.80;;;;;;5035160;28;20498;-62
2024/03/30 02:20:37;;;;;;;3.60;0.88;;;8.30;57.90;;;;;;5032789;28;20042;-61
2024/03/30 02:23:22;;;;;;;3.33;1.15;;;8.30;57.90;;;;;;5033395;28;20055;-62
2024/03/30 02:26:07;;;;;;;3.67;1.00;;;8.30;58.00;;;;;;5048675;28;20101;-61
2024/03/30 02:28:53;;;;;;;8.48;1.38;;;8.20;57.80;;;;;;5031410;28;20047;-62
2024/03/30 02:31:39;;;;;;;4.28;1.20;;;8.20;57.80;;;;;;5030517;28;20112;-62
2024/03/30 02:34:25;;;;;;;4.38;1.20;;;8.20;57.90;;;;;;5024847;28;20519;-62
2024/03/30 02:37:11;;;;;;;3.53;1.33;;;8.20;58.00;;;;;;5040860;28;20052;-62
2024/03/30 02:40:04;;;;;;;4.20;1.15;;;8.20;58.00;;;;;;5031241;28;20563;-62
2024/03/30 02:42:49;;;;;;;4.22;1.67;;;8.10;57.80;;;;;;5044098;28;20191;-62
2024/03/30 02:45:33;;;;;;;3.55;1.00;;;8.10;57.90;;;;;;5030620;28;20076;-62
2024/03/30 02:48:18;;;;;;;2.00;1.27;;;8.10;57.90;;;;;;5038280;28;20114;-62
2024/03/30 02:51:03;;;;;;;2.70;0.95;;;8.10;58.00;;;;;;5039508;28;20051;-61
2024/03/30 02:53:47;;;;;;;4.72;1.45;;;8.00;57.80;;;;;;5035240;28;20032;-62
2024/03/30 02:56:32;;;;;;;3.83;1.20;;;8.00;57.90;;;;;;5052154;28;21545;-62
2024/03/30 02:59:17;;;;;;;5.40;1.55;;;8.00;57.90;;;;;;5026419;28;20425;-62
2024/03/30 03:02:03;;;;;;;5.60;1.35;;;8.00;57.90;;;;;;5062285;28;20176;-62
2024/03/30 03:04:48;;;;;;;4.95;1.25;;;7.90;57.80;;;;;;5026524;28;20166;-62
2024/03/30 03:07:32;;;;;;;4.72;1.50;;;8.00;58.00;;;;;;5035102;28;20257;-61
2024/03/30 03:10:17;;;;;;;4.10;1.30;;;7.90;57.80;;;;;;5036627;28;20120;-62
2024/03/30 03:13:02;;;;;;;2.53;0.90;;;8.00;58.10;;;;;;5019967;28;20045;-62
2024/03/30 03:15:47;;;;;;;6.63;1.48;;;7.90;57.90;;;;;;5054300;28;20043;-62
2024/03/30 03:18:32;;;;;;;2.80;0.77;;;7.90;57.90;;;;;;5033567;28;20533;-62
2024/03/30 03:21:16;;;;;;;6.35;1.15;;;7.90;57.90;;;;;;5032875;28;20051;-61
2024/03/30 03:24:01;;;;;;;2.28;1.05;;;7.80;57.70;;;;;;5030255;28;20194;-62
2024/03/30 03:26:46;;;;;;;2.55;0.93;;;7.80;57.80;;;;;;5031966;28;20478;-62
2024/03/30 03:29:32;;;;;;;4.03;1.00;;;7.80;57.80;;;;;;5028400;28;20067;-62
2024/03/30 03:32:17;;;;;;;2.03;1.13;;;7.80;57.90;;;;;;5051444;28;20080;-63
2024/03/30 03:35:04;;;;;;;3.13;0.80;;;7.80;57.90;;;;;;5042875;28;20098;-61
2024/03/30 03:37:48;;;;;;;5.03;1.13;;;7.70;57.80;;;;;;5032311;28;20067;-61
2024/03/30 03:40:33;;;;;;;4.60;0.85;;;7.70;57.80;;;;;;5029502;28;20036;-61
2024/03/30 03:43:17;;;;;;;5.88;1.10;;;7.70;57.80;;;;;;5028748;28;20048;-61
2024/03/30 03:46:03;;;;;;;1.90;1.02;;;7.70;57.90;;;;;;5038727;28;20063;-61
2024/03/30 03:48:48;;;;;;;2.65;0.90;;;7.60;57.70;;;;;;5028306;28;20067;-61
2024/03/30 03:51:32;;;;;;;5.00;1.02;;;7.60;57.70;;;;;;5029072;28;20055;-62
2024/03/30 03:54:19;;;;;;;3.28;1.10;;;7.60;57.70;;;;;;5061499;28;20032;-61
2024/03/30 03:57:04;;;;;;;3.17;0.88;;;7.60;57.80;;;;;;5024230;28;20127;-61
2024/03/30 03:59:50;;;;;;;4.72;1.15;;;7.60;57.80;;;;;;5063455;28;20056;-61
2024/03/30 04:02:37;;;;;;;2.55;1.10;;;7.50;57.60;;;;;;5025543;28;20114;-61
2024/03/30 04:05:22;;;;;;;3.88;0.90;;;7.50;57.60;;;;;;5029292;28;20404;-60
2024/03/30 04:08:07;;;;;;;1.98;1.00;;;7.50;57.60;;;;;;5024518;28;20067;-60
2024/03/30 04:11:00;;;;;;;4.63;1.20;;;7.50;57.70;;;;;;5027810;28;20040;-61
2024/03/30 04:13:45;;;;;;;3.30;0.77;;;7.40;57.50;;;;;;5058704;28;20416;-60
2024/03/30 04:16:29;;;;;;;2.97;1.17;;;7.40;57.50;;;;;;5030235;28;20110;-59
2024/03/30 04:19:17;;;;;;;2.88;0.95;;;7.40;57.50;;;;;;5023896;28;20078;-58
2024/03/30 04:22:03;;;;;;;2.70;1.00;;;7.40;57.60;;;;;;5029404;28;20043;-62
2024/03/30 04:24:48;;;;;;;2.72;0.93;;;7.30;57.40;;;;;;5027686;28;20079;-59
2024/03/30 04:27:33;;;;;;;5.20;0.98;;;7.30;57.40;;;;;;5027686;28;20040;-60
2024/03/30 04:30:18;;;;;;;2.92;1.10;;;7.30;57.50;;;;;;5032935;28;20114;-58
2024/03/30 04:33:03;;;;;;;2.15;1.23;;;7.30;57.70;;;;;;5041249;28;20429;-59
2024/03/30 04:35:59;;;;;;;4.10;1.15;;;7.30;57.60;;;;;;5032604;28;20079;-59
2024/03/30 04:38:44;;;;;;;4.50;1.00;;;7.30;57.70;;;;;;5036605;28;20064;-59
2024/03/30 04:41:29;;;;;;;5.90;1.13;;;7.30;57.60;;;;;;5036097;28;20499;-59
2024/03/30 04:44:13;;;;;;;3.55;1.05;;;7.30;57.70;;;;;;5036553;28;20407;-59
2024/03/30 04:46:58;;;;;;;1.98;0.90;;;7.20;57.50;;;;;;5029054;28;20057;-59
2024/03/30 04:49:43;;;;;;;5.95;1.50;;;7.20;57.50;;;;;;5030429;28;20055;-59
2024/03/30 04:52:27;;;;;;;3.53;0.77;;;7.20;57.50;;;;;;5033778;28;20039;-59
2024/03/30 04:55:12;;;;;;;6.22;0.98;;;7.20;57.50;;;;;;5031829;28;20568;-59
2024/03/30 04:57:56;;;;;;;2.67;0.80;;;7.20;57.60;;;;;;5030967;28;20052;-59
2024/03/30 05:00:41;;;;;;;4.57;1.02;;;7.20;57.60;;;;;;5031671;28;20089;-59
2024/03/30 05:03:25;;;;;;;3.30;1.17;;;7.20;57.60;;;;;;5053245;28;20162;-59
2024/03/30 05:06:10;;;;;;;4.60;1.20;;;7.20;57.70;;;;;;5055456;28;20048;-59
2024/03/30 05:08:55;;;;;;;4.35;1.85;;;7.10;57.50;;;;;;5027095;28;20102;-60
2024/03/30 05:11:40;;;;;;;3.38;1.13;;;7.10;57.50;;;;;;5032252;28;20284;-59
2024/03/30 05:14:25;;;;;;;2.33;0.80;;;7.10;57.60;;;;;;5032742;28;20082;-60
2024/03/30 05:17:09;;;;;;;2.80;1.00;;;7.10;57.60;;;;;;5030212;28;20578;-59
2024/03/30 05:22:57;;;;;;;5.70;1.30;;;7.10;57.60;;;;;;5031542;28;20060;-59
2024/03/30 05:25:42;;;;;;;3.95;0.88;;;7.10;57.70;;;;;;5031568;28;20411;-59
2024/03/30 05:28:28;;;;;;;3.22;1.17;;;7.00;57.50;;;;;;5028906;28;20569;-59
2024/03/30 05:31:21;;;;;;;4.07;0.98;;;7.00;57.60;;;;;;5030812;28;20729;-60
2024/03/30 05:34:06;;;;;;;1.23;0.75;;;7.00;57.60;;;;;;5031617;28;20040;-59
2024/03/30 05:36:51;;;;;;;5.38;0.90;;;7.00;57.60;;;;;;5042770;28;20084;-60
2024/03/30 05:39:35;;;;;;;6.15;1.38;;;7.00;57.60;;;;;;5034670;28;20107;-59
2024/03/30 05:42:20;;;;;;;6.32;1.05;;;7.00;57.70;;;;;;5035117;28;20063;-59
2024/03/30 05:45:05;;;;;;;3.45;0.90;;;6.90;57.50;;;;;;5047152;28;20533;-59
2024/03/30 05:47:49;;;;;;;3.33;0.90;;;7.00;57.70;;;;;;5048695;28;20105;-59
2024/03/30 05:50:35;;;;;;;3.53;0.98;;;6.90;57.50;;;;;;5029659;28;20465;-59
2024/03/30 05:53:19;;;;;;;4.97;1.75;;;6.90;57.60;;;;;;5023537;28;21114;-59
2024/03/30 05:56:04;;;;;;;3.78;1.05;;;6.90;58.10;;;;;;5022314;28;20095;-67
2024/03/30 05:58:50;;;;;;;4.80;0.77;;;6.90;57.60;;;;;;5031107;28;20109;-59
2024/03/30 06:01:34;;;;;;;1.67;0.98;;;6.90;57.60;;;;;;5042993;28;20099;-59
2024/03/30 06:04:19;;;;;;;3.22;0.85;;;6.90;57.70;;;;;;5051244;28;20070;-59
2024/03/30 06:07:08;;;;;;;3.72;1.92;;;6.90;57.70;;;;;;5062906;28;20048;-60
2024/03/30 06:09:53;;;;;;;2.72;1.05;;;6.90;57.70;;;;;;5036681;28;20039;-60
2024/03/30 06:12:38;;;;;;;5.95;1.38;;;6.80;57.50;;;;;;5029825;28;20362;-60
2024/03/30 06:15:23;;;;;;;2.88;1.13;;;6.90;57.70;;;;;;5031412;28;20052;-59
2024/03/30 06:18:07;;;;;;;3.97;0.85;;;6.90;57.80;;;;;;5034463;28;20541;-62
2024/03/30 06:20:52;;;;;;;3.00;1.08;;;6.80;57.60;;;;;;5031792;28;20060;-62
2024/03/30 06:23:36;;;;;;;4.80;1.35;;;6.90;57.80;;;;;;5031383;28;20071;-61
2024/03/30 06:26:21;;;;;;;5.15;1.20;;;6.90;57.80;;;;;;5042886;28;20086;-62
2024/03/30 06:29:09;;;;;;;3.28;1.20;;;6.90;57.80;;;;;;5025123;28;20142;-62
2024/03/30 06:31:54;;;;;;;3.97;1.20;;;7.00;58.00;;;;;;5042432;28;20083;-62
2024/03/30 06:34:39;;;;;;;6.53;1.40;;;7.00;57.90;;;;;;5026189;28;20040;-63
2024/03/30 06:37:24;;;;;;;5.82;1.23;;;7.10;58.00;;;;;;5035586;28;20090;-63
2024/03/30 06:46:16;;;;;;;;;;;7.70;58.10;;;;;;5035027;28;20098;-63
2024/03/30 06:49:01;;;;;;;3.45;1.05;;;8.00;57.90;;;;;;5033470;28;19919;-64
2024/03/30 06:51:49;;;;;;;4.78;1.15;;;8.30;57.70;;;;;;5025199;28;20083;-60
2024/03/30 06:54:34;;;;;;;3.88;1.15;;;8.50;57.50;;;;;;5028421;28;20094;-63
2024/03/30 06:57:19;;;;;;;3.65;1.27;;;8.70;57.40;;;;;;5036901;28;20078;-61
2024/03/30 07:00:04;;;;;;;4.18;1.40;;;8.90;57.40;;;;;;5036636;28;20528;-61
2024/03/30 07:02:49;;;;;;;3.35;1.30;;;9.10;57.50;;;;;;5049273;28;20056;-62
2024/03/30 07:05:34;;;;;;;2.00;0.93;;;9.20;57.40;;;;;;5038972;28;20036;-61
2024/03/30 07:08:19;;;;;;;2.15;0.85;;;9.40;57.60;;;;;;5024728;28;20047;-63
2024/03/30 07:11:04;;;;;;;4.85;1.15;;;9.50;57.70;;;;;;5031870;28;20051;-62
2024/03/30 07:13:48;;;;;;;6.68;1.13;;;9.50;57.60;;;;;;5038783;28;20558;-61
2024/03/30 07:16:33;;;;;;;2.78;0.90;;;9.50;57.70;;;;;;5063679;28;20036;-62
2024/03/30 07:19:17;;;;;;;3.90;1.13;;;9.40;57.60;;;;;;5042439;28;20743;-62
2024/03/30 07:22:02;;;;;;;3.88;0.93;;;9.40;57.80;;;;;;5037131;28;20134;-62
2024/03/30 07:24:47;;;;;;;3.38;0.90;;;9.40;58.00;;;;;;5032874;28;20741;-59
2024/03/30 07:27:32;;;;;;;8.60;1.40;;;9.30;58.00;;;;;;5038263;28;20113;-62
2024/03/30 07:30:17;;;;;;;2.70;1.08;;;9.40;58.30;;;;;;5045031;28;20043;-61
2024/03/30 07:33:03;;;;;;;2.90;1.15;;;9.30;58.20;;;;;;5041980;28;20043;-61
2024/03/30 07:35:56;;;;;;;5.80;1.02;;;9.30;58.40;;;;;;5030110;28;20041;-62
2024/03/30 07:38:40;;;;;;;6.05;1.00;;;9.40;58.70;;;;;;5052185;28;20561;-71
2024/03/30 07:41:26;;;;;;;5.38;1.27;;;9.40;58.80;;;;;;5039275;28;20051;-62
2024/03/30 07:44:11;;;;;;;6.70;1.27;;;9.50;59.30;;;;;;5058218;28;20079;-62
2024/03/30 07:46:56;;;;;;;3.20;0.90;;;9.50;59.60;;;;;;5059095;28;20047;-65
2024/03/30 07:49:41;;;;;;;5.78;1.35;;;9.60;59.90;;;;;;5046839;28;20047;-62
2024/03/30 07:52:25;;;;;;;4.45;1.23;;;9.70;60.20;;;;;;5038595;28;20050;-66
2024/03/30 07:55:10;;;;;;;5.50;1.42;;;9.80;60.30;;;;;;5023694;28;20047;-62
2024/03/30 07:57:55;;;;;;;5.18;1.17;;;9.80;60.40;;;;;;5041287;28;20667;-63
2024/03/30 08:00:40;;;;;;;7.03;1.25;;;9.90;60.80;;;;;;5050081;28;20117;-62
2024/03/30 08:03:25;;;;;;;3.92;1.17;;;10.00;61.10;;;;;;5032906;28;20076;-62
2024/03/30 08:06:11;;;;;;;5.28;0.98;;;10.10;61.30;;;;;;5033155;28;20044;-68
2024/03/30 08:08:56;;;;;;;4.00;1.20;;;10.20;61.40;;;;;;5035353;28;20051;-63
2024/03/30 08:11:41;;;;;;;6.38;1.75;;;10.20;61.50;;;;;;5032866;28;20574;-63
2024/03/30 08:14:26;;;;;;;4.30;1.30;;;10.30;61.60;;;;;;5033495;28;20518;-62
2024/03/30 08:17:11;;;;;;;5.25;1.45;;;10.30;61.60;;;;;;5047469;28;20124;-62
2024/03/30 08:19:56;;;;;;;4.45;1.25;;;10.40;61.80;;;;;;5075181;28;20287;-61
2024/03/30 08:22:41;;;;;;;7.55;1.50;;;10.40;61.70;;;;;;5040137;28;20549;-62
2024/03/30 08:25:26;;;;;;;6.60;1.30;;;10.50;61.90;;;;;;5037925;28;20159;-62
2024/03/30 08:28:10;;;;;;;5.88;1.33;;;10.50;61.80;;;;;;5033628;28;20051;-61
2024/03/30 08:30:55;;;;;;;5.47;1.17;;;10.60;61.80;;;;;;5026839;28;20032;-62
2024/03/30 08:33:40;;;;;;;5.32;1.50;;;10.60;61.80;;;;;;5026356;28;20040;-63
2024/03/30 08:36:38;;;;;;;4.57;1.15;;;10.70;62.50;;;;;;5041582;28;20194;-62
2024/03/30 08:39:23;;;;;;;4.82;1.00;;;10.70;61.80;;;;;;5013815;28;20063;-63
2024/03/30 08:42:08;;;;;;;9.18;1.90;;;10.80;62.00;;;;;;5027259;28;20059;-62
2024/03/30 08:44:53;;;;;;;5.82;2.38;;;10.90;62.10;;;;;;5033626;28;20036;-62
2024/03/30 08:47:38;;;;;;;3.63;1.23;;;10.90;62.00;;;;;;5038275;28;20157;-63
2024/03/30 08:50:23;;;;;;;5.45;1.17;;;11.10;62.20;;;;;;5041486;28;20063;-55
2024/03/30 08:53:10;;;;;;;7.65;1.50;;;11.20;62.20;;;;;;5038189;28;20104;-63
2024/03/30 08:56:00;;;;;;;9.48;1.58;;;11.30;62.20;;;;;;5031423;28;20044;-66
2024/03/30 08:58:45;;;;;;;7.32;1.60;;;11.40;62.30;;;;;;5021300;28;20454;-63
2024/03/30 09:01:29;;;;;;;4.55;1.20;;;11.50;62.30;;;;;;5035735;28;20051;-63
2024/03/30 09:04:14;;;;;;;4.82;1.33;;;11.60;62.50;;;;;;5030084;28;20055;-63
2024/03/30 09:07:01;;;;;;;3.65;1.33;;;11.70;62.60;;;;;;5018079;28;20128;-64
2024/03/30 09:09:46;;;;;;;6.78;1.20;;;11.70;62.50;;;;;;5031986;28;20027;-62
2024/03/30 09:12:30;;;;;;;5.25;1.90;;;11.70;62.50;;;;;;5049746;28;20063;-64
2024/03/30 09:15:16;;;;;;;5.03;1.23;;;11.70;62.50;;;;;;5030913;28;20036;-62
2024/03/30 09:18:07;;;;;;;5.88;1.20;;;11.80;62.70;;;;;;5039859;28;20044;-63
2024/03/30 09:20:52;;;;;;;4.85;1.25;;;11.80;62.70;;;;;;5031494;28;20079;-64
2024/03/30 09:23:37;;;;;;;3.78;1.30;;;11.90;62.80;;;;;;5033490;28;20044;-63
2024/03/30 09:26:21;;;;;;;3.10;1.70;;;12.00;62.90;;;;;;5027327;28;20103;-62
2024/03/30 09:29:06;;;;;;;5.43;1.15;;;12.10;62.90;;;;;;5031260;28;20068;-63
2024/03/30 09:31:51;;;;;;;4.30;1.17;;;12.10;62.80;;;;;;5048395;28;20063;-63
2024/03/30 09:34:36;;;;;;;3.35;1.40;;;12.20;62.80;;;;;;5027731;28;20040;-63
2024/03/30 09:37:21;;;;;;;4.28;1.00;;;12.30;62.70;;;;;;5046085;28;20048;-63
2024/03/30 09:40:06;;;;;;;4.45;1.38;;;12.30;62.60;;;;;;5040053;28;20037;-62
2024/03/30 09:42:52;;;;;;;5.13;0.98;;;12.30;62.50;;;;;;5044294;28;20075;-62
2024/03/30 09:45:39;;;;;;;5.93;2.15;;;12.40;62.60;;;;;;5033996;28;20427;-64
2024/03/30 09:48:25;;;;;;;3.08;0.75;;;12.40;62.50;;;;;;5052335;28;20039;-62
2024/03/30 09:51:13;;;;;;;2.55;0.90;;;12.40;62.50;;;;;;5039966;28;20051;-62
2024/03/30 09:53:59;;;;;;;9.90;2.38;;;12.40;62.40;;;;;;5046217;28;20099;-61
2024/03/30 09:56:47;;;;;;;6.28;1.38;;;12.40;62.40;;;;;;5056398;28;20063;-62
2024/03/30 09:59:33;;;;;;;8.32;1.50;;;12.50;62.60;;;;;;5037113;28;20052;-64
2024/03/30 10:02:19;;;;;;;6.20;1.20;;;12.60;62.70;;;;;;5064867;28;20078;-68
2024/03/30 10:05:07;;;;;;;4.95;1.17;;;12.80;63.10;;;;;;5029274;28;20048;-68
2024/03/30 10:08:03;;;;;;;13.73;1.77;;;13.00;63.40;;;;;;5049810;28;20159;-68
2024/03/30 10:10:53;;;;;;;5.82;1.25;;;13.30;63.70;;;;;;5052235;28;20131;-66
2024/03/30 10:13:57;;;;;;;3.50;1.02;;;13.50;63.60;;;;;;5028831;28;20044;-65
2024/03/30 10:16:45;;;;;;;3.80;1.00;;;14.00;63.80;;;;;;5034223;28;20283;-63
2024/03/30 10:19:32;;;;;;;7.93;1.23;;;14.30;63.30;;;;;;5037582;28;20086;-64
2024/03/30 10:22:17;;;;;;;6.57;1.63;;;14.50;62.70;;;;;;5051847;28;20019;-68
2024/03/30 10:25:03;;;;;;;5.68;1.02;;;14.60;62.30;;;;;;5035802;28;20055;-65
2024/03/30 10:27:48;;;;;;;6.07;1.23;;;14.70;62.00;;;;;;5032086;28;21018;-67
2024/03/30 10:30:33;;;;;;;4.43;0.88;;;14.60;61.60;;;;;;5043173;28;20411;-66
2024/03/30 10:33:21;;;;;;;3.17;0.77;;;14.50;61.30;;;;;;5039621;28;20031;-62
2024/03/30 10:36:10;;;;;;;3.28;1.02;;;14.40;61.20;;;;;;5038879;28;20044;-69
2024/03/30 10:38:56;;;;;;;5.95;0.80;;;14.30;61.30;;;;;;5044508;28;20720;-69
2024/03/30 10:41:42;;;;;;;4.65;1.15;;;14.30;61.40;;;;;;5038866;28;20043;-69
2024/03/30 10:44:30;;;;;;;2.92;0.77;;;14.40;61.60;;;;;;5035860;28;20044;-69
2024/03/30 10:47:15;;;;;;;3.28;0.88;;;14.50;61.80;;;;;;5045260;28;20481;-70
2024/03/30 10:50:00;;;;;;;4.82;1.02;;;14.60;61.90;;;;;;5046513;28;20189;-68
2024/03/30 10:52:45;;;;;;;6.55;0.98;;;14.70;61.90;;;;;;5037000;28;20462;-67
2024/03/30 10:55:30;;;;;;;3.15;0.88;;;14.80;62.00;;;;;;5047978;28;20229;-68
2024/03/30 10:58:16;;;;;;;2.33;0.63;;;14.90;62.00;;;;;;5040999;28;20268;-69
2024/03/30 11:01:03;;;;;;;4.45;1.15;;;14.90;61.90;;;;;;5059798;28;20114;-68
2024/03/30 11:03:48;;;;;;;2.30;0.70;;;15.10;62.10;;;;;;5046154;28;20048;-66
2024/03/30 11:06:33;;;;;;;2.72;1.10;;;15.20;62.10;;;;;;5031463;28;20028;-68
2024/03/30 11:09:22;;;;;;;2.85;0.80;;;15.30;62.20;;;;;;5047824;28;20182;-65
2024/03/30 11:12:08;;;;;;;7.03;1.45;;;15.40;62.20;;;;;;5032269;28;20195;-67
2024/03/30 11:14:53;;;;;;;3.70;1.13;;;15.60;62.30;;;;;;5040973;28;20071;-67
2024/03/30 11:17:41;;;;;;;3.47;0.82;;;15.60;62.10;;;;;;5034988;28;20041;-67
2024/03/30 11:20:43;;;;;;;1.65;0.40;;;15.70;62.00;;;;;;5045802;28;20120;-67
2024/03/30 11:23:57;;;;;;;4.72;1.10;;;15.80;62.00;;;;;;5042420;28;20086;-73
2024/03/30 11:26:52;;;;;;;4.85;0.90;;;16.00;62.00;;;;;;5041954;28;20039;-68
2024/03/30 11:29:55;;;;;;;3.38;1.00;;;16.10;62.00;;;;;;5035377;28;20080;-68
2024/03/30 11:32:52;;;;;;;3.03;0.77;;;16.20;61.80;;;;;;5043206;28;20067;-67
2024/03/30 11:35:44;;;;;;;3.72;0.80;;;16.30;61.70;;;;;;5040707;28;20036;-67
2024/03/30 11:38:32;;;;;;;4.95;0.95;;;16.40;61.60;;;;;;5034149;28;20048;-66
2024/03/30 11:41:17;;;;;;;4.47;0.77;;;16.50;61.50;;;;;;5044788;28;20109;-66
2024/03/30 11:44:06;;;;;;;4.15;1.55;;;16.70;61.60;;;;;;5042123;28;20035;-65
2024/03/30 11:46:51;;;;;;;2.10;0.70;;;16.70;61.20;;;;;;5070134;28;20600;-67
2024/03/30 11:49:36;;;;;;;2.75;0.75;;;16.80;61.00;;;;;;5038461;28;20055;-67
2024/03/30 11:52:22;;;;;;;2.65;0.85;;;16.90;61.00;;;;;;5047940;28;20172;-67
2024/03/30 11:55:07;;;;;;;5.03;1.40;;;17.00;60.90;;;;;;5038977;28;20059;-68
2024/03/30 11:57:53;;;;;;;2.00;0.85;;;17.10;60.70;;;;;;5045225;28;20541;-67
2024/03/30 12:00:52;;;;;;;3.67;0.68;;;17.20;60.70;;;;;;5049664;28;20467;-67
2024/03/30 12:03:37;;;;;;;3.63;0.93;;;17.30;60.60;;;;;;5039045;28;20158;-67
2024/03/30 12:06:22;;;;;;;2.22;0.85;;;17.40;60.60;;;;;;5055625;28;20044;-66
2024/03/30 12:09:07;;;;;;;0.60;0.40;;;17.50;60.50;;;;;;5072690;28;20055;-67
2024/03/30 12:12:18;;;;;;;3.33;0.88;;;17.50;60.20;;;;;;5044914;28;20059;-67
2024/03/30 12:15:12;;;;;;;1.83;0.60;;;17.60;60.10;;;;;;5058691;28;20103;-62
2024/03/30 12:17:58;;;;;;;3.30;0.80;;;17.60;60.00;;;;;;5046533;28;20412;-69
2024/03/30 12:20:46;;;;;;;1.83;0.75;;;17.70;60.00;;;;;;5053874;28;20295;-68
2024/03/30 12:23:32;;;;;;;3.22;0.73;;;17.80;60.00;;;;;;5058580;28;20558;-69
2024/03/30 12:26:18;;;;;;;3.47;0.90;;;17.80;59.80;;;;;;5086849;28;20130;-68
2024/03/30 12:29:03;;;;;;;2.67;0.73;;;17.80;59.80;;;;;;5051922;28;20048;-68
2024/03/30 12:31:48;;;;;;;5.13;1.30;;;17.80;59.70;;;;;;5053904;28;20549;-68
2024/03/30 12:34:33;;;;;;;1.58;0.60;;;17.80;59.70;;;;;;5042747;28;20036;-68
2024/03/30 12:37:18;;;;;;;1.42;0.70;;;17.90;59.70;;;;;;5035003;28;20068;-68
2024/03/30 12:40:03;;;;;;;1.42;0.73;;;17.90;59.60;;;;;;5055706;28;20047;-68
2024/03/30 12:42:48;;;;;;;1.65;0.80;;;18.00;59.70;;;;;;5047569;28;20047;-69
2024/03/30 12:45:32;;;;;;;3.25;0.63;;;18.20;59.80;;;;;;5048781;28;20465;-67
2024/03/30 12:48:17;;;;;;;1.23;0.80;;;18.40;59.90;;;;;;5050927;28;20082;-70
2024/03/30 12:51:02;;;;;;;2.20;0.63;;;18.40;59.60;;;;;;5062511;28;20387;-68
2024/03/30 12:53:48;;;;;;;4.00;0.90;;;18.50;59.60;;;;;;5068657;28;20039;-73
2024/03/30 12:56:33;;;;;;;2.50;0.88;;;18.60;59.60;;;;;;5068705;28;20062;-70
2024/03/30 12:59:19;;;;;;;2.83;1.13;;;18.60;59.40;;;;;;5082461;28;20063;-69
2024/03/30 13:02:04;;;;;;;3.55;0.85;;;18.60;59.30;;;;;;5066494;28;20071;-68
2024/03/30 13:04:49;;;;;;;1.65;0.70;;;18.60;59.10;;;;;;5046857;28;20072;-69
2024/03/30 13:07:34;;;;;;;1.55;0.80;;;18.60;58.90;;;;;;5046953;28;20254;-70
2024/03/30 13:10:20;;;;;;;5.78;1.00;;;18.60;59.30;;;;;;5056691;28;20028;-69
2024/03/30 13:13:04;;;;;;;2.35;0.95;;;18.60;58.40;;;;;;5055115;28;20326;-70
2024/03/30 13:15:49;;;;;;;2.75;0.80;;;18.70;58.40;;;;;;5058635;28;20079;-69
2024/03/30 13:18:37;;;;;;;3.42;1.42;;;18.70;58.20;;;;;;5061644;28;20035;-71
2024/03/30 13:21:25;;;;;;;4.18;0.70;;;18.70;57.90;;;;;;5051690;28;20028;-69
2024/03/30 13:24:14;;;;;;;4.18;1.23;;;18.80;57.90;;;;;;5045068;28;20364;-72
2024/03/30 13:26:58;;;;;;;1.88;0.70;;;18.80;57.70;;;;;;5061021;28;20102;-70
2024/03/30 13:29:43;;;;;;;2.60;0.73;;;18.90;57.70;;;;;;5054504;28;20114;-72
2024/03/30 13:32:28;;;;;;;2.47;0.70;;;18.90;57.30;;;;;;5062698;28;20384;-70
2024/03/30 13:35:12;;;;;;;1.88;0.63;;;19.00;57.20;;;;;;5046629;28;20067;-68
2024/03/30 13:37:57;;;;;;;0.95;0.60;;;19.00;56.90;;;;;;5051157;28;20048;-71
2024/03/30 13:40:42;;;;;;;1.73;0.60;;;19.10;56.80;;;;;;5038580;28;20799;-70
2024/03/30 13:43:27;;;;;;;3.28;0.70;;;19.20;56.70;;;;;;5054800;28;20262;-69
2024/03/30 13:46:12;;;;;;;2.17;1.05;;;19.30;56.50;;;;;;5042849;28;20130;-68
2024/03/30 13:48:58;;;;;;;1.38;0.43;;;19.50;56.50;;;;;;5053334;28;20039;-68
2024/03/30 13:51:43;;;;;;;3.47;0.80;;;19.50;56.30;;;;;;5051201;28;20040;-58
2024/03/30 13:54:29;;;;;;;2.15;0.88;;;19.70;56.40;;;;;;5037077;28;20049;-59
2024/03/30 13:57:14;;;;;;;4.03;1.00;;;19.80;56.40;;;;;;5077198;28;20540;-67
2024/03/30 13:59:59;;;;;;;4.30;0.80;;;19.80;56.20;;;;;;5044409;28;20044;-73
2024/03/30 14:02:44;;;;;;;2.42;0.90;;;19.90;56.10;;;;;;5069553;28;20052;-70
2024/03/30 14:05:29;;;;;;;2.60;1.02;;;20.00;56.00;;;;;;5040336;28;20048;-69
2024/03/30 14:08:14;;;;;;;3.95;1.02;;;20.10;56.00;;;;;;5063065;28;20064;-69
2024/03/30 14:10:58;;;;;;;2.53;0.95;;;20.30;56.10;;;;;;5051829;28;20063;-70
2024/03/30 14:13:45;;;;;;;2.60;0.77;;;20.40;55.90;;;;;;5039843;28;20117;-68
2024/03/30 14:16:30;;;;;;;3.75;1.15;;;20.60;56.00;;;;;;5050011;28;20333;-70
2024/03/30 14:19:15;;;;;;;1.55;0.52;;;20.70;55.90;;;;;;5044638;28;20040;-71
2024/03/30 14:21:59;;;;;;;2.40;0.68;;;20.70;55.80;;;;;;5045150;28;20048;-69
2024/03/30 14:24:44;;;;;;;2.15;0.68;;;20.80;55.90;;;;;;5037048;28;20722;-70
2024/03/30 14:27:32;;;;;;;4.03;1.17;;;20.80;55.70;;;;;;5052655;28;20127;-66
2024/03/30 14:30:18;;;;;;;2.45;0.70;;;20.80;55.70;;;;;;5046679;28;20545;-65
2024/03/30 14:33:03;;;;;;;2.70;0.85;;;20.90;55.80;;;;;;5046687;28;20698;-65
2024/03/30 14:35:48;;;;;;;2.40;0.70;;;20.80;55.50;;;;;;5040186;28;20587;-70
2024/03/30 14:38:32;;;;;;;2.15;0.85;;;20.90;55.60;;;;;;5039538;28;20044;-65
2024/03/30 14:41:17;;;;;;;3.75;1.50;;;20.90;55.50;;;;;;5065411;28;20673;-65
2024/03/30 14:44:02;;;;;;;2.13;0.60;;;21.00;55.60;;;;;;5053696;28;20259;-67